Camp Pendleton, California
Current Conditions -  °F | °C
As of 7:02 AM on Tuesday 21 Oct 2014 (Local Time) from KNFG Reporting Station
Haze Haze  
Wind Chill: 66°   Ceiling: 1500
Heat Index: 66°   Visibility: 6mi
Dew Point: 58°   Wind: 5mph
Humidity: 75%   Direction: 80°E
Pressure: 29.89"   Gusts: NA
Location:  33.3°N, 117.36°W
Report Text: KNFG 211402Z AUTO 08004KT 6SM HZ OVC015 19/14 A2989 RMK AO2 T01890144 $
Loading
Personal Weather Stations






























Interactive Weather Map
Tropical Storm Tracking
New forecast layout! Learn more

10-Day Weather Forecast

Advertisements
Track Severe Weather on mobile